Terminal Aerodrome Forecast
Issued by NWS

Home | Current Version | Previous Version | Text Only | Print | Product List | Glossary On
Versions: 1 2 3 4 5 6 7 8 9 10 11 12 13 14
000
FTUS45 KGJT 301126
TAFEGE
TAF
KEGE 301126Z 3012/3112 24003KT P6SM FEW140 SCT250
     FM301900 26008G17KT P6SM SCT110 SCT250
     FM310100 30007KT P6SM SCT110 SCT250
     FM310200 03006KT P6SM SCT250
     FM310800 00000KT P6SM SCT250
      AMD LTD TO CLD VIS AND WIND TIL 301300=

USA.gov is the U.S. government's official web portal to all federal, state and local government web resources and services.